Forney's Hourly Summary for Wednesday, July 11, 2018
Hour Temp
(f)
RH
(%)
Solar Rad.
(MJ/m2)
Rainfall
(in)
Wind
(mph)
7/11/2018 12:00 AM 78 75 0 0 0.1
7/11/2018 1:00 AM 77 77 0 0 0.08
7/11/2018 2:00 AM 76 81 0 0 0.01
7/11/2018 3:00 AM 75 84 0 0 0
7/11/2018 4:00 AM 75 86 0 0 0
7/11/2018 5:00 AM 75 84 0 0 0.05
7/11/2018 6:00 AM 75 84 0 0 0
7/11/2018 7:00 AM 75 85 0.03 0 0
7/11/2018 8:00 AM 76 81 0.22 0 0.26
7/11/2018 9:00 AM 78 78 0.41 0 1.46
7/11/2018 10:00 AM 80 71 0.95 0 2.83
7/11/2018 11:00 AM 84 59 1.86 0 2.12
7/11/2018 12:00 PM 87 57 1.31 0 2.31
7/11/2018 1:00 PM 90 50 3.21 0 4.11
7/11/2018 2:00 PM 92 43 3.1 0 3.54
7/11/2018 3:00 PM 95 36 3.07 0 3.46
7/11/2018 4:00 PM 94 38 2.97 0 6.84
7/11/2018 5:00 PM 95 40 2.29 0 5.07
7/11/2018 6:00 PM 91 41 0.62 0 4.17
7/11/2018 7:00 PM 83 59 0.19 0 2.97
7/11/2018 8:00 PM 81 71 0.11 0 2.52
7/11/2018 9:00 PM 80 70 0.04 0 1.08
7/11/2018 10:00 PM 80 70 0 0 1.91
7/11/2018 11:00 PM 80 68 0 0 2.1
Data Summary 82 66 20.38 0.00 1.96